createdAt,value
2019-02-16T00:11:54.389Z,20.70
2019-02-16T00:51:58.051Z,20.70
2019-02-16T01:05:05.263Z,20.80
2019-02-16T01:31:17.375Z,20.70
2019-02-16T01:44:24.556Z,20.80
2019-02-16T01:57:31.738Z,20.80
2019-02-16T02:10:39.002Z,20.80
2019-02-16T02:36:49.544Z,20.80
2019-02-16T02:49:56.850Z,20.80
2019-02-16T03:03:04.043Z,20.80
2019-02-16T03:16:11.286Z,20.80
2019-02-16T03:29:18.481Z,20.80
2019-02-16T03:42:25.647Z,20.80
2019-02-16T03:55:49.248Z,20.80
2019-02-16T04:09:12.111Z,20.80
2019-02-16T04:22:34.910Z,20.80
2019-02-16T04:35:57.675Z,20.80
2019-02-16T04:49:20.482Z,20.80
2019-02-16T05:02:43.331Z,20.80
2019-02-16T05:16:06.133Z,20.80
2019-02-16T05:29:28.944Z,20.80
2019-02-16T05:42:51.764Z,20.80
2019-02-16T05:56:14.573Z,20.70
2019-02-16T06:09:37.400Z,20.60
2019-02-16T06:23:03.425Z,20.60
2019-02-16T06:36:23.026Z,20.60
2019-02-16T06:49:45.835Z,20.40
2019-02-16T07:03:08.640Z,20.10
2019-02-16T07:16:31.492Z,20.00
2019-02-16T07:29:54.319Z,19.90
2019-02-16T07:43:17.120Z,19.90
2019-02-16T07:56:39.954Z,19.80
2019-02-16T08:10:02.740Z,19.70
2019-02-16T08:23:25.607Z,19.70
2019-02-16T08:36:48.396Z,19.60
2019-02-16T08:50:11.286Z,19.60
2019-02-16T09:03:34.040Z,19.70
2019-02-16T09:16:56.851Z,20.00
2019-02-16T09:43:55.015Z,20.60
2019-02-16T09:57:02.156Z,20.80
2019-02-16T10:10:10.118Z,20.90
2019-02-16T10:23:17.308Z,20.90
2019-02-16T10:36:41.065Z,20.90
2019-02-16T11:17:05.880Z,20.90
2019-02-16T11:30:28.596Z,20.90
2019-02-16T11:43:51.397Z,21.10
2019-02-16T11:57:14.243Z,21.00
2019-02-16T12:10:37.122Z,20.90
2019-02-16T12:23:59.893Z,20.90
2019-02-16T12:37:22.687Z,20.90
2019-02-16T12:50:45.507Z,20.90
2019-02-16T13:04:08.352Z,21.10
2019-02-16T13:17:31.233Z,20.90
2019-02-16T13:30:53.964Z,20.80
2019-02-16T13:44:16.775Z,20.80
2019-02-16T13:57:39.665Z,21.00
2019-02-16T14:11:02.401Z,21.20
2019-02-16T14:50:33.356Z,21.60
2019-02-16T15:03:40.523Z,21.70
2019-02-16T15:16:47.701Z,21.80
2019-02-16T15:29:55.023Z,22.00
2019-02-16T15:43:02.166Z,22.00
2019-02-16T15:56:10.381Z,22.00
2019-02-16T16:09:34.426Z,22.00
2019-02-16T16:22:56.044Z,22.00
2019-02-16T16:36:18.698Z,22.20
2019-02-16T16:49:41.486Z,22.10
2019-02-16T17:03:04.353Z,22.00
2019-02-16T17:16:27.168Z,22.00
2019-02-16T17:29:49.941Z,22.00
2019-02-16T17:43:12.763Z,22.10
2019-02-16T18:09:37.280Z,22.20
2019-02-16T18:22:44.610Z,22.20
2019-02-16T18:35:51.871Z,22.00
2019-02-16T18:48:59.059Z,22.10
2019-02-16T19:02:06.280Z,22.00
2019-02-16T19:15:13.629Z,22.00
2019-02-16T19:28:37.016Z,21.90
2019-02-16T19:41:59.961Z,22.00
2019-02-16T19:55:22.628Z,22.00
2019-02-16T20:08:45.560Z,22.00
2019-02-16T20:22:08.240Z,22.00
2019-02-16T20:35:31.145Z,21.80
2019-02-16T20:48:53.891Z,21.70
2019-02-16T21:02:16.684Z,21.60
2019-02-16T21:15:39.494Z,21.70
2019-02-16T21:29:02.334Z,21.60
2019-02-16T21:42:25.156Z,21.30
2019-02-16T21:55:48.083Z,21.10
2019-02-16T22:09:10.795Z,21.00
2019-02-16T22:22:33.699Z,21.00
2019-02-16T22:35:56.453Z,20.90
2019-02-16T22:49:19.491Z,21.10
2019-02-16T23:02:42.025Z,21.20
2019-02-16T23:16:04.929Z,21.20
2019-02-16T23:29:27.763Z,21.20
2019-02-16T23:42:50.515Z,21.20
2019-02-16T23:56:13.335Z,21.20
